WHISKEYTOWN DAM (USBR) (WHI)

Elevation: 1210' · SACRAMENTO R basin · Operator: US Bureau of Reclamation

Provisional data, subject to change.
Query executed Wednesday at 20:05:53   clock

Select a sensor type for a plot of data.
Note: Reservoir Flows are daily averages.

Earlier

Date RES ELE    STORAGE    RES CHG    OUTFLOW    INFLOW    EVAP    RIV REL    PPT INC    RAIN    SPILL    DIS PWR   
 FEET   AF   AF   CFS   CFS   CFS   CFS   INCHES   INCHES   CFS   CFS  
05/31/2016 1207.10 231878 -220 194 109 26 174 0.00 62.68 0 20
06/01/2016 1207.26 232382 504 188 470 28 174 0.00 62.68 0 14
06/02/2016 1207.19 232161 -221 527 443 27 174 0.00 62.68 0 353
06/03/2016 1207.33 232603 442 268 512 21 174 0.00 62.68 0 94
06/04/2016 1207.12 231941 -662 454 150 30 174 0.00 62.68 0 280
06/05/2016 1207.31 232540 599 265 585 18 174 0.00 62.68 0 91
06/06/2016 1207.47 233045 505 218 499 26 204 0.00 62.68 0 14
06/07/2016 1207.59 233423 378 332 550 27 318 0.00 62.68 0 14
06/08/2016 1207.67 233676 253 381 535 26 367 0.00 62.68 0 14
06/09/2016 1207.87 234307 631 408 746 20 394 0.00 62.68 0 14
06/10/2016 1208.26 235543 1236 322 970 25 308 0.00 62.68 0 14
06/11/2016 1208.61 236656 1113 230 816 25 216 0.00 62.68 0 14
06/12/2016 1209.03 237991 1335 158 859 28 144 0.00 62.68 0 14
06/13/2016 1209.44 239303 1312 158 846 27 144 0.00 62.68 0 14
06/14/2016 1209.49 239463 160 158 267 28 144 0.00 62.68 0 14
06/15/2016 1209.41 239207 -256 158 47 18 144 0.00 62.68 0 14
06/16/2016 1209.37 239079 -128 158 99 6 144 0.06 62.74 0 14
06/17/2016 1209.50 239496 417 158 368 0 144 0.16 62.90 0 14
06/18/2016 1209.59 239784 288 213 358 0 144 0.88 63.78 0 69
06/19/2016 1209.34 238983 -801 526 139 17 144 0.00 63.78 0 382
06/20/2016 1209.22 238599 -384 338 170 26 237 0.00 63.78 0 101
06/21/2016 1209.03 237991 -608 563 284 28 549 0.00 63.78 0 14
06/22/2016 1208.90 237577 -414 1493 1309 25 652 0.00 63.78 0 841
06/23/2016 1208.91 237609 32 1230 1274 28 754 0.00 63.78 0 476
06/24/2016 1208.80 237259 -350 1167 1013 22 755 0.00 63.78 0 412
06/25/2016 1208.94 237704 445 902 1148 22 459 0.00 63.78 0 443
06/26/2016 1209.07 238119 415 1028 1259 22 350 0.00 63.78 0 678
06/27/2016 1209.05 238055 -64 1101 1091 22 259 0.00 63.78 0 842
06/28/2016 1209.24 238663 608 827 1162 28 184 0.00 63.78 0 643
06/29/2016 -- -- -- -- -- -- -- -- -- -- --

Later | Latest

Warning! This data is preliminary and subject to revision.

Show WHI Map | Plot WHI Data | 1 Month WHI Data | Real-Time WHI Data | WHI Info